Time;durP1;ratioP1;P1;durP2;ratioP2;P2;SDS_P1;SDS_P2;PMS_P1;PMS_P2;Temp;Humidity;BMP_temperature;BMP_pressure;BME280_temperature;BME280_humidity;BME280_pressure;Samples;Min_cycle;Max_cycle;Signal;HPM_P1;HPM_P2
2022/07/13 00:01:16;;;;;;;;;;;;;;;25.40;29.56;99574.28;4376257;32;35267;-88
2022/07/13 00:03:44;;;;;;;;;;;;;;;24.87;30.09;99573.78;4376343;32;34400;-86
2022/07/13 00:06:11;;;;;;;;;;;;;;;24.99;30.17;99578.59;4376049;32;33688;-90
2022/07/13 00:08:38;;;;;;;;;;;;;;;25.49;29.56;99583.66;4376386;32;34136;-89
2022/07/13 00:11:06;;;;;;;;;;;;;;;25.41;29.51;99585.75;4376506;32;34366;-89
2022/07/13 00:13:33;;;;;;;;;;;;;;;25.23;29.70;99580.31;4362789;32;35305;-85
2022/07/13 00:16:00;;;;;;;;;;;;;;;25.09;29.97;99579.09;4376465;32;32741;-89
2022/07/13 00:18:28;;;;;;;;;;;;;;;25.38;29.49;99580.56;4376160;32;35144;-88
2022/07/13 00:20:55;;;;;;;;;;;;;;;25.21;29.88;99582.13;4376083;32;35306;-87
2022/07/13 00:23:23;;;;;;;;;;;;;;;25.31;29.62;99585.28;4376081;32;34073;-86
2022/07/13 00:25:50;;;;;;;;;;;;;;;24.92;30.42;99580.59;4376244;32;32783;-85
2022/07/13 00:28:17;;;;;;;;;;;;;;;24.93;30.27;99582.37;4376245;32;34751;-87
2022/07/13 00:30:44;;;;;;;;;;;;;;;24.93;30.33;99578.84;4376256;32;34031;-85
2022/07/13 00:33:12;;;;;;;;;;;;;;;24.92;30.36;99572.66;4362551;32;32960;-90
2022/07/13 00:35:39;;;;;;;;;;;;;;;25.16;30.07;99577.97;4375908;32;34493;-86
2022/07/13 00:38:07;;;;;;;;;;;;;;;24.70;30.42;99571.75;4375988;32;34247;-89
2022/07/13 00:40:34;;;;;;;;;;;;;;;24.72;30.30;99567.28;4376402;32;35230;-90
2022/07/13 00:43:01;;;;;;;;;;;;;;;24.86;30.28;99564.09;4376495;32;34248;-90
2022/07/13 00:45:29;;;;;;;;;;;;;;;24.87;30.56;99565.81;4375781;32;33504;-85
2022/07/13 00:47:56;;;;;;;;;;;;;;;24.89;30.38;99566.59;4376112;32;34304;-87
2022/07/13 00:50:23;;;;;;;;;;;;;;;25.12;30.07;99561.31;4362575;32;34833;-89
2022/07/13 00:52:51;;;;;;;;;;;;;;;25.26;29.80;99557.22;4361178;32;35043;-89
2022/07/13 00:55:19;;;;;;;;;;;;;;;25.22;29.79;99554.66;4376169;32;34101;-85
2022/07/13 00:57:47;;;;;;;;;;;;;;;25.09;30.08;99550.78;4375827;32;34189;-89
2022/07/13 01:00:14;;;;;;;;;;;;;;;25.18;30.00;99550.41;4375409;32;35180;-89
2022/07/13 01:02:43;;;;;;;;;;;;;;;25.01;30.11;99542.28;4375776;32;35379;-84
2022/07/13 01:05:10;;;;;;;;;;;;;;;24.83;30.69;99550.94;4362624;32;33922;-85
2022/07/13 01:07:38;;;;;;;;;;;;;;;24.85;30.58;99559.69;4350212;32;34892;-84
2022/07/13 01:10:06;;;;;;;;;;;;;;;24.81;30.68;99552.78;4375695;32;34387;-83
2022/07/13 01:12:34;;;;;;;;;;;;;;;24.99;30.29;99555.56;4350085;32;35041;-86
2022/07/13 01:15:02;;;;;;;;;;;;;;;25.01;30.12;99555.53;4362254;32;33132;-85
2022/07/13 01:17:30;;;;;;;;;;;;;;;24.86;30.37;99556.12;4374968;32;34803;-85
2022/07/13 01:19:58;;;;;;;;;;;;;;;24.86;30.44;99557.00;4375877;32;35212;-89
2022/07/13 01:22:25;;;;;;;;;;;;;;;24.88;30.23;99552.47;4375805;32;34160;-88
2022/07/13 01:24:53;;;;;;;;;;;;;;;24.98;30.02;99545.03;4375646;32;33581;-89
2022/07/13 01:27:20;;;;;;;;;;;;;;;24.89;30.33;99550.69;4362247;32;33781;-89
2022/07/13 01:29:47;;;;;;;;;;;;;;;24.89;30.25;99545.38;4362092;32;34808;-87
2022/07/13 01:32:15;;;;;;;;;;;;;;;24.82;30.39;99550.09;4362077;32;34336;-89
2022/07/13 01:34:42;;;;;;;;;;;;;;;24.71;30.38;99547.84;4375485;32;34097;-89
2022/07/13 01:37:09;;;;;;;;;;;;;;;24.57;30.73;99544.88;4375387;32;34966;-87
2022/07/13 01:39:37;;;;;;;;;;;;;;;24.71;30.66;99549.66;4361348;32;33798;-84
2022/07/13 01:42:04;;;;;;;;;;;;;;;23.92;31.75;99537.56;4362179;32;33018;-89
2022/07/13 01:44:33;;;;;;;;;;;;;;;24.23;31.44;99538.16;4362221;32;33335;-82
2022/07/13 01:47:06;;;;;;;;;;;;;;;24.42;31.28;99545.47;4375397;32;34906;-85
2022/07/13 01:49:35;;;;;;;;;;;;;;;24.53;31.03;99527.34;4375579;32;35258;-85
2022/07/13 01:52:03;;;;;;;;;;;;;;;24.63;30.77;99527.87;4361768;32;33731;-88
2022/07/13 01:54:30;;;;;;;;;;;;;;;23.72;32.06;99528.53;4374576;32;34052;-84
2022/07/13 01:56:57;;;;;;;;;;;;;;;24.06;32.09;99527.34;4375350;32;34401;-88
2022/07/13 01:59:24;;;;;;;;;;;;;;;24.15;31.82;99521.69;4375560;32;33930;-85
2022/07/13 02:01:56;;;;;;;;;;;;;;;23.88;32.33;99525.34;4375343;32;34325;-84
2022/07/13 02:04:23;;;;;;;;;;;;;;;23.48;33.30;99524.91;4375049;32;33816;-85
2022/07/13 02:06:51;;;;;;;;;;;;;;;23.70;32.73;99525.06;4363564;32;34310;-85
2022/07/13 02:09:18;;;;;;;;;;;;;;;23.73;32.74;99519.69;4376604;32;34011;-85
2022/07/13 02:11:46;;;;;;;;;;;;;;;23.87;32.54;99521.84;4350762;32;34189;-85
2022/07/13 02:14:13;;;;;;;;;;;;;;;24.20;31.84;99519.72;4371194;32;33297;-89
2022/07/13 02:16:41;;;;;;;;;;;;;;;24.28;31.72;99528.28;4377275;32;34882;-86
2022/07/13 02:19:08;;;;;;;;;;;;;;;24.33;31.67;99519.28;4376747;32;33892;-85
2022/07/13 02:21:36;;;;;;;;;;;;;;;24.43;31.52;99526.84;4377184;32;35515;-85
2022/07/13 02:24:03;;;;;;;;;;;;;;;24.33;31.58;99527.22;4375692;32;33061;-88
2022/07/13 02:26:30;;;;;;;;;;;;;;;24.35;31.46;99522.72;4372802;32;33712;-85
2022/07/13 02:28:59;;;;;;;;;;;;;;;24.23;31.61;99519.63;4377089;32;34030;-85
2022/07/13 02:31:26;;;;;;;;;;;;;;;24.42;31.19;99521.59;4363826;32;34028;-89
2022/07/13 02:33:53;;;;;;;;;;;;;;;24.08;31.82;99522.84;4376961;32;33421;-88
2022/07/13 02:36:21;;;;;;;;;;;;;;;23.94;32.25;99518.06;4377024;32;35010;-85
2022/07/13 02:38:48;;;;;;;;;;;;;;;24.05;32.07;99525.59;4376836;32;34583;-86
2022/07/13 02:41:16;;;;;;;;;;;;;;;23.81;32.34;99518.53;4377074;32;34120;-89
2022/07/13 02:43:44;;;;;;;;;;;;;;;24.14;31.83;99514.66;4351235;32;33311;-89
2022/07/13 02:46:11;;;;;;;;;;;;;;;24.17;31.80;99519.88;4377044;32;34991;-88
2022/07/13 02:48:39;;;;;;;;;;;;;;;24.18;31.62;99518.94;4376783;32;35107;-87
2022/07/13 02:51:06;;;;;;;;;;;;;;;23.85;32.25;99525.47;4376791;32;34203;-88
2022/07/13 02:53:33;;;;;;;;;;;;;;;23.69;32.61;99526.00;4376361;32;34172;-88
2022/07/13 02:56:02;;;;;;;;;;;;;;;23.86;32.31;99521.87;4376663;32;34160;-85
2022/07/13 02:58:30;;;;;;;;;;;;;;;23.39;33.20;99525.25;4377038;32;35424;-85
2022/07/13 03:00:57;;;;;;;;;;;;;;;23.72;32.56;99517.09;4377048;32;34389;-85
2022/07/13 03:03:24;;;;;;;;;;;;;;;23.54;32.88;99518.56;4376618;32;33422;-90
2022/07/13 03:05:53;;;;;;;;;;;;;;;23.63;32.70;99517.38;4363095;32;32915;-88
2022/07/13 03:08:20;;;;;;;;;;;;;;;23.40;33.19;99519.03;4376935;32;35342;-89
2022/07/13 03:10:47;;;;;;;;;;;;;;;23.56;32.80;99516.72;4376657;32;33996;-88
2022/07/13 03:13:15;;;;;;;;;;;;;;;23.58;32.73;99509.59;4362854;32;33067;-85
2022/07/13 03:15:42;;;;;;;;;;;;;;;23.38;32.92;99520.03;4362917;32;33958;-84
2022/07/13 03:18:09;;;;;;;;;;;;;;;23.41;32.86;99527.81;4376737;32;33897;-85
2022/07/13 03:20:38;;;;;;;;;;;;;;;23.60;32.71;99523.66;4377020;32;33944;-88
2022/07/13 03:23:06;;;;;;;;;;;;;;;23.64;32.65;99519.97;4363212;32;33418;-82
2022/07/13 03:25:33;;;;;;;;;;;;;;;23.21;33.44;99516.13;4376422;32;34356;-84
2022/07/13 03:28:00;;;;;;;;;;;;;;;22.98;34.14;99521.31;4376266;32;34155;-83
2022/07/13 03:30:28;;;;;;;;;;;;;;;23.36;33.42;99521.84;4376428;32;34464;-86
2022/07/13 03:32:56;;;;;;;;;;;;;;;22.95;33.96;99521.41;4376306;32;33708;-84
2022/07/13 03:35:24;;;;;;;;;;;;;;;23.02;34.16;99530.88;4376558;32;34232;-87
2022/07/13 03:37:51;;;;;;;;;;;;;;;22.81;34.16;99525.34;4376432;32;34389;-86
2022/07/13 03:40:19;;;;;;;;;;;;;;;22.98;34.30;99526.59;4376629;32;34007;-83
2022/07/13 03:42:47;;;;;;;;;;;;;;;23.24;33.66;99531.91;4376329;32;34237;-86
2022/07/13 03:45:15;;;;;;;;;;;;;;;22.95;34.52;99534.63;4376276;32;34971;-88
2022/07/13 03:47:42;;;;;;;;;;;;;;;23.11;33.98;99530.59;4376748;32;35019;-84
2022/07/13 03:50:10;;;;;;;;;;;;;;;23.38;33.71;99525.31;4376560;32;34374;-86
2022/07/13 03:52:43;;;;;;;;;;;;;;;23.19;34.73;99535.63;4376320;32;34154;-85
2022/07/13 03:55:10;;;;;;;;;;;;;;;24.04;32.91;99537.13;4376429;32;33956;-84
2022/07/13 03:57:38;;;;;;;;;;;;;;;23.91;31.89;99528.75;4376737;32;34276;-84
2022/07/13 04:00:07;;;;;;;;;;;;;;;23.86;33.25;99535.97;4362434;32;34607;-84
2022/07/13 04:02:41;;;;;;;;;;;;;;;24.78;31.94;99537.88;4376443;32;34274;-87
2022/07/13 04:05:09;;;;;;;;;;;;;;;24.90;31.36;99545.34;4363198;32;34646;-89
2022/07/13 04:07:40;;;;;;;;;;;;;;;24.16;32.41;99544.59;4376481;32;34235;-84
2022/07/13 04:10:08;;;;;;;;;;;;;;;24.30;32.23;99540.59;4363082;32;34864;-90
2022/07/13 04:12:36;;;;;;;;;;;;;;;25.13;30.30;99528.53;4362744;32;32521;-84
2022/07/13 04:15:03;;;;;;;;;;;;;;;24.49;32.20;99526.59;4355455;32;32359;-88
2022/07/13 04:17:31;;;;;;;;;;;;;;;24.38;32.01;99522.63;4391535;32;34444;-85
2022/07/13 04:19:59;;;;;;;;;;;;;;;25.38;30.36;99527.50;4386206;32;34438;-88
2022/07/13 04:22:26;;;;;;;;;;;;;;;25.29;30.32;99533.19;4376677;32;33677;-84
2022/07/13 04:24:54;;;;;;;;;;;;;;;25.31;30.40;99526.91;4362820;32;35129;-83
2022/07/13 04:27:21;;;;;;;;;;;;;;;23.96;32.58;99520.63;4376025;32;34497;-88
2022/07/13 04:29:52;;;;;;;;;;;;;;;26.05;29.80;99513.09;4376081;32;34852;-84
2022/07/13 04:32:19;;;;;;;;;;;;;;;25.59;29.41;99518.63;4376606;32;33486;-89
2022/07/13 04:34:47;;;;;;;;;;;;;;;25.86;29.53;99518.38;4362034;32;33023;-84
2022/07/13 04:37:14;;;;;;;;;;;;;;;26.05;29.31;99515.75;4354155;32;33951;-84
2022/07/13 04:39:42;;;;;;;;;;;;;;;25.50;29.14;99516.38;4373365;32;35201;-85
2022/07/13 04:42:11;;;;;;;;;;;;;;;26.15;28.32;99517.09;4376126;32;33948;-85
2022/07/13 04:44:39;;;;;;;;;;;;;;;25.69;28.90;99512.00;4376070;32;34356;-89
2022/07/13 04:47:07;;;;;;;;;;;;;;;25.83;28.62;99508.75;4376232;32;35328;-86
2022/07/13 04:49:35;;;;;;;;;;;;;;;25.72;29.86;99513.63;4375698;32;34112;-91
2022/07/13 04:52:03;;;;;;;;;;;;;;;26.03;28.71;99510.53;4376012;32;33258;-84
2022/07/13 04:54:31;;;;;;;;;;;;;;;25.82;28.45;99519.44;4376020;32;35133;-86
2022/07/13 04:56:58;;;;;;;;;;;;;;;25.84;28.53;99515.81;4375986;32;35339;-89
2022/07/13 04:59:25;;;;;;;;;;;;;;;26.01;28.23;99522.16;4376119;32;34499;-84
2022/07/13 05:01:53;;;;;;;;;;;;;;;25.92;28.77;99528.75;4376568;32;33264;-87
2022/07/13 05:04:21;;;;;;;;;;;;;;;26.15;27.84;99520.59;4374950;32;33644;-84
2022/07/13 05:06:49;;;;;;;;;;;;;;;25.39;28.90;99527.44;4375889;32;34463;-89
2022/07/13 05:09:16;;;;;;;;;;;;;;;26.59;28.35;99527.47;4375881;32;34470;-85
2022/07/13 05:11:44;;;;;;;;;;;;;;;26.69;27.80;99520.78;4375726;32;34240;-85
2022/07/13 05:14:11;;;;;;;;;;;;;;;26.19;28.23;99518.66;4374578;32;33997;-91
2022/07/13 05:16:38;;;;;;;;;;;;;;;26.77;27.69;99526.59;4350228;32;34357;-84
2022/07/13 05:19:07;;;;;;;;;;;;;;;26.40;27.08;99520.34;4376025;32;34430;-84
2022/07/13 05:21:34;;;;;;;;;;;;;;;27.04;26.44;99523.53;4362571;32;34393;-84
2022/07/13 05:24:02;;;;;;;;;;;;;;;27.35;26.80;99525.56;4375810;32;33958;-84
2022/07/13 05:26:29;;;;;;;;;;;;;;;27.22;26.22;99525.31;4375180;32;34514;-85
2022/07/13 05:28:56;;;;;;;;;;;;;;;26.78;26.80;99519.47;4373658;32;34074;-83
2022/07/13 05:31:25;;;;;;;;;;;;;;;26.97;27.16;99525.62;4375587;32;34302;-85
2022/07/13 05:33:52;;;;;;;;;;;;;;;27.01;26.29;99516.56;4375408;32;34205;-84
2022/07/13 05:36:20;;;;;;;;;;;;;;;26.66;27.03;99519.13;4375935;32;34945;-84
2022/07/13 05:38:47;;;;;;;;;;;;;;;27.06;26.54;99519.00;4375323;32;33805;-87
2022/07/13 05:41:15;;;;;;;;;;;;;;;26.76;26.51;99522.22;4375053;32;33206;-86
2022/07/13 05:43:42;;;;;;;;;;;;;;;27.55;26.44;99525.41;4377936;32;34216;-88
2022/07/13 05:46:10;;;;;;;;;;;;;;;27.25;26.13;99532.28;4390651;32;34199;-88
2022/07/13 05:48:37;;;;;;;;;;;;;;;27.06;26.84;99530.50;4376867;32;33980;-87
2022/07/13 05:51:05;;;;;;;;;;;;;;;26.94;26.74;99536.44;4390658;32;33518;-85
2022/07/13 05:53:53;;;;;;;;;;;;;;;27.08;26.74;99530.41;4390539;32;33767;-87
2022/07/13 05:56:20;;;;;;;;;;;;;;;27.46;26.41;99539.19;4390785;32;33974;-86
2022/07/13 05:58:48;;;;;;;;;;;;;;;27.96;25.32;99533.09;4390427;32;35162;-84
2022/07/13 06:01:15;;;;;;;;;;;;;;;26.23;28.29;99538.00;4377651;32;33270;-87
2022/07/13 06:03:43;;;;;;;;;;;;;;;25.95;28.27;99531.28;4383903;32;33889;-87
2022/07/13 06:06:11;;;;;;;;;;;;;;;27.11;27.33;99533.81;4383145;32;35230;-84
2022/07/13 06:08:39;;;;;;;;;;;;;;;26.99;27.16;99529.09;4390298;32;35015;-86
2022/07/13 06:11:06;;;;;;;;;;;;;;;27.65;26.36;99531.13;4390235;32;34317;-87
2022/07/13 06:13:33;;;;;;;;;;;;;;;27.11;26.76;99530.31;4378364;32;33920;-84
2022/07/13 06:16:01;;;;;;;;;;;;;;;27.20;26.36;99526.31;4375044;32;35303;-87
2022/07/13 06:18:29;;;;;;;;;;;;;;;25.77;28.72;99530.25;4375074;32;34318;-88
2022/07/13 06:20:56;;;;;;;;;;;;;;;26.78;27.57;99535.44;4374956;32;34364;-88
2022/07/13 06:23:23;;;;;;;;;;;;;;;27.22;27.19;99529.78;4374759;32;35091;-87
2022/07/13 06:25:53;;;;;;;;;;;;;;;27.30;26.95;99532.91;4361801;32;34412;-95
2022/07/13 06:28:20;;;;;;;;;;;;;;;27.63;26.31;99539.19;4375411;32;35021;-87
2022/07/13 06:30:47;;;;;;;;;;;;;;;27.77;25.93;99533.19;4348629;32;31488;-86
2022/07/13 06:33:14;;;;;;;;;;;;;;;26.92;27.66;99535.63;4375006;32;33911;-94
2022/07/13 06:35:42;;;;;;;;;;;;;;;27.17;27.49;99533.53;4374944;32;34928;-88
2022/07/13 06:38:09;;;;;;;;;;;;;;;26.80;27.93;99537.09;4361281;32;33818;-87
2022/07/13 06:40:36;;;;;;;;;;;;;;;27.36;27.56;99529.97;4375109;32;34476;-82
2022/07/13 06:43:04;;;;;;;;;;;;;;;27.34;26.90;99543.31;4376262;32;34296;-93
2022/07/13 06:45:32;;;;;;;;;;;;;;;27.76;27.11;99530.59;4374689;32;34319;-87
2022/07/13 06:48:00;;;;;;;;;;;;;;;28.62;25.81;99537.53;4374695;32;35162;-95
2022/07/13 06:50:27;;;;;;;;;;;;;;;26.68;28.08;99541.19;4374532;32;33498;-87
2022/07/13 06:52:54;;;;;;;;;;;;;;;27.49;27.25;99547.03;4362940;32;33119;-86
2022/07/13 06:55:23;;;;;;;;;;;;;;;26.84;28.12;99546.66;4363888;32;32362;-94
2022/07/13 06:57:51;;;;;;;;;;;;;;;28.06;26.96;99550.31;4376846;32;34738;-85
2022/07/13 07:00:18;;;;;;;;;;;;;;;27.72;27.06;99555.66;4363450;32;32855;-95
2022/07/13 07:02:45;;;;;;;;;;;;;;;27.82;26.77;99556.94;4377127;32;34051;-89
2022/07/13 07:05:13;;;;;;;;;;;;;;;27.74;27.71;99556.44;4371345;32;35158;-90
2022/07/13 07:07:40;;;;;;;;;;;;;;;28.40;26.54;99553.84;4363775;32;33578;-89
2022/07/13 07:10:08;;;;;;;;;;;;;;;28.62;26.66;99549.06;4377172;32;33971;-96
2022/07/13 07:12:36;;;;;;;;;;;;;;;28.64;26.87;99553.44;4378007;32;34412;-93
2022/07/13 07:15:03;;;;;;;;;;;;;;;28.90;26.46;99550.19;4377439;32;35027;-89
2022/07/13 07:17:31;;;;;;;;;;;;;;;29.38;25.61;99545.69;4363522;32;34432;-96
2022/07/13 07:19:59;;;;;;;;;;;;;;;27.83;27.09;99540.00;4362975;32;33241;-93
2022/07/13 07:22:27;;;;;;;;;;;;;;;27.85;27.01;99546.97;4374394;32;35428;-93
2022/07/13 07:24:54;;;;;;;;;;;;;;;27.78;28.28;99547.38;4363263;32;34527;-91
2022/07/13 07:27:25;;;;;;;;;;;;;;;28.78;26.71;99546.41;4376905;32;34418;-92
2022/07/13 07:29:53;;;;;;;;;;;;;;;29.33;25.29;99537.09;4377456;32;33472;-91
2022/07/13 07:32:21;;;;;;;;;;;;;;;29.06;25.98;99529.72;4377507;32;34233;-88
2022/07/13 07:34:49;;;;;;;;;;;;;;;29.24;25.24;99534.94;4376570;32;34038;-85
2022/07/13 07:37:19;;;;;;;;;;;;;;;28.61;26.04;99533.16;4376486;32;35254;-93
2022/07/13 07:39:46;;;;;;;;;;;;;;;28.61;25.85;99528.69;4363403;32;33556;-85
2022/07/13 07:42:13;;;;;;;;;;;;;;;28.64;26.37;99526.78;4376118;32;35056;-83
2022/07/13 07:44:41;;;;;;;;;;;;;;;28.03;26.65;99518.47;4376833;32;34440;-86
2022/07/13 07:47:08;;;;;;;;;;;;;;;28.55;26.99;99520.16;4376587;32;34129;-94
2022/07/13 07:49:36;;;;;;;;;;;;;;;28.05;26.74;99521.94;4376467;32;34122;-93
2022/07/13 07:52:07;;;;;;;;;;;;;;;29.11;25.23;99517.91;4363602;32;33842;-87
2022/07/13 07:54:54;;;;;;;;;;;;;;;29.18;25.36;99521.97;4376056;32;35588;-90
2022/07/13 07:57:27;;;;;;;;;;;;;;;29.83;25.34;99522.53;4346661;32;33292;-90
2022/07/13 07:59:55;;;;;;;;;;;;;;;28.82;25.62;99528.41;4376636;32;32901;-85
2022/07/13 08:02:22;;;;;;;;;;;;;;;27.86;27.26;99526.53;4381544;32;34747;-88
2022/07/13 08:04:51;;;;;;;;;;;;;;;28.84;26.07;99531.88;4362675;32;34432;-85
2022/07/13 08:07:19;;;;;;;;;;;;;;;28.61;26.33;99514.50;4376448;32;34326;-84
2022/07/13 08:09:46;;;;;;;;;;;;;;;29.14;26.11;99515.94;4364162;32;33304;-90
2022/07/13 08:12:14;;;;;;;;;;;;;;;29.13;25.46;99521.34;4376652;32;33958;-89
2022/07/13 08:14:41;;;;;;;;;;;;;;;29.47;25.15;99521.09;4363101;32;33786;-89
2022/07/13 08:17:09;;;;;;;;;;;;;;;29.07;25.58;99515.41;4361148;32;33714;-90
2022/07/13 08:19:37;;;;;;;;;;;;;;;29.33;25.60;99513.03;4372536;32;33914;-89
2022/07/13 08:22:07;;;;;;;;;;;;;;;30.41;25.45;99502.88;4376175;32;35032;-86
2022/07/13 08:24:34;;;;;;;;;;;;;;;29.59;25.55;99498.16;4372665;32;34451;-92
2022/07/13 08:27:02;;;;;;;;;;;;;;;30.30;24.11;99505.37;4376209;32;34833;-91
2022/07/13 08:29:29;;;;;;;;;;;;;;;29.76;24.89;99514.03;4376372;32;33751;-86
2022/07/13 08:31:57;;;;;;;;;;;;;;;29.08;26.29;99503.78;4376014;32;34066;-89
2022/07/13 08:39:57;;;;;;;;;;;;;;;29.60;25.64;99486.53;4391131;32;33481;-88
2022/07/13 08:42:24;;;;;;;;;;;;;;;28.75;26.36;99495.00;4390990;32;34157;-92
2022/07/13 08:44:51;;;;;;;;;;;;;;;30.01;24.84;99488.47;4365423;32;34201;-96
2022/07/13 08:47:18;;;;;;;;;;;;;;;30.66;24.35;99480.75;4376347;32;34313;-94
2022/07/13 08:49:46;;;;;;;;;;;;;;;29.25;26.04;99486.78;4375985;32;33244;-86
2022/07/13 08:52:13;;;;;;;;;;;;;;;30.34;24.89;99472.12;4376289;32;34967;-90
2022/07/13 08:54:40;;;;;;;;;;;;;;;29.74;25.74;99475.00;4357449;32;32372;-84
2022/07/13 08:57:08;;;;;;;;;;;;;;;30.30;24.82;99467.94;4355758;32;33445;-90
2022/07/13 08:59:35;;;;;;;;;;;;;;;30.44;24.53;99481.28;4361990;32;33405;-91
2022/07/13 09:02:02;;;;;;;;;;;;;;;30.49;24.24;99473.81;4374527;32;34269;-93
2022/07/13 09:04:30;;;;;;;;;;;;;;;29.25;25.91;99480.59;4349279;32;35261;-86
2022/07/13 09:06:58;;;;;;;;;;;;;;;30.43;24.59;99471.56;4375361;32;34286;-86
2022/07/13 09:09:33;;;;;;;;;;;;;;;30.18;24.76;99463.38;4375476;32;34516;-83
2022/07/13 09:12:21;;;;;;;;;;;;;;;30.32;24.91;99459.81;4375999;32;34077;-91
2022/07/13 09:14:56;;;;;;;;;;;;;;;30.59;24.28;99451.81;4375474;32;34848;-86
2022/07/13 09:17:33;;;;;;;;;;;;;;;29.81;25.23;99454.94;4362384;32;35199;-91
2022/07/13 09:20:04;;;;;;;;;;;;;;;30.08;25.30;99456.84;4349979;32;34443;-83
2022/07/13 09:22:31;;;;;;;;;;;;;;;30.21;24.43;99455.16;4375683;32;35441;-86
2022/07/13 09:25:00;;;;;;;;;;;;;;;30.09;24.87;99455.91;4375821;32;34580;-84
2022/07/13 09:27:27;;;;;;;;;;;;;;;30.67;24.07;99455.72;4376012;32;34517;-84
2022/07/13 09:29:55;;;;;;;;;;;;;;;30.63;23.75;99453.34;4349712;32;33724;-86
2022/07/13 09:32:22;;;;;;;;;;;;;;;30.50;24.03;99453.28;4376117;32;34310;-88
2022/07/13 09:34:52;;;;;;;;;;;;;;;29.43;24.67;99454.59;4375624;32;34472;-89
2022/07/13 09:37:23;;;;;;;;;;;;;;;30.30;24.22;99458.09;4375729;32;34066;-89
2022/07/13 09:39:54;;;;;;;;;;;;;;;30.29;24.13;99460.87;4362442;32;34372;-93
2022/07/13 09:42:32;;;;;;;;;;;;;;;30.58;23.94;99468.84;4362040;32;35137;-91
2022/07/13 09:47:47;;;;;;;;;;;;;;;31.17;23.86;99472.94;4364449;32;34092;-83
2022/07/13 09:50:18;;;;;;;;;;;;;;;31.07;22.28;99455.78;4375781;32;34114;-85
2022/07/13 09:52:46;;;;;;;;;;;;;;;30.24;23.89;99489.75;4361620;32;34912;-85
2022/07/13 09:55:15;;;;;;;;;;;;;;;31.07;22.50;99461.16;4362019;32;34929;-90
2022/07/13 09:57:46;;;;;;;;;;;;;;;31.06;22.64;99454.03;4349645;32;34318;-86
2022/07/13 10:00:27;;;;;;;;;;;;;;;30.82;22.74;99450.34;4363322;32;32959;-88
2022/07/13 10:02:54;;;;;;;;;;;;;;;30.84;23.40;99451.97;4362405;32;35002;-91
2022/07/13 10:05:22;;;;;;;;;;;;;;;30.85;22.74;99456.34;4361930;32;34227;-81
2022/07/13 10:07:49;;;;;;;;;;;;;;;30.27;23.15;99447.59;4374874;32;34786;-83
2022/07/13 10:10:17;;;;;;;;;;;;;;;30.36;21.54;99456.84;4361979;32;33669;-88
2022/07/13 10:12:44;;;;;;;;;;;;;;;30.88;22.69;99448.12;4374889;32;33870;-91
2022/07/13 10:15:12;;;;;;;;;;;;;;;31.35;22.07;99445.91;4374837;32;34474;-82
2022/07/13 10:17:40;;;;;;;;;;;;;;;31.31;21.75;99439.03;4376310;32;34161;-91
2022/07/13 10:20:12;;;;;;;;;;;;;;;31.74;22.14;99434.22;4371851;32;33540;-84
2022/07/13 10:22:41;;;;;;;;;;;;;;;31.19;23.21;99438.03;4367650;32;35057;-86
2022/07/13 10:25:09;;;;;;;;;;;;;;;31.75;22.48;99444.00;4375078;32;34796;-88
2022/07/13 10:27:37;;;;;;;;;;;;;;;31.81;21.46;99451.59;4362959;32;35170;-85
2022/07/13 10:30:22;;;;;;;;;;;;;;;31.43;22.58;99447.06;4377130;32;34111;-87
2022/07/13 10:32:49;;;;;;;;;;;;;;;31.87;22.22;99451.19;4363374;32;34125;-83
2022/07/13 10:35:17;;;;;;;;;;;;;;;31.88;20.84;99449.38;4377225;32;35479;-87
2022/07/13 10:37:56;;;;;;;;;;;;;;;31.20;22.02;99442.41;4376939;32;34312;-87
2022/07/13 10:40:32;;;;;;;;;;;;;;;31.47;21.31;99445.91;4377127;32;33365;-89
2022/07/13 10:43:06;;;;;;;;;;;;;;;31.31;22.63;99429.19;4363406;32;33963;-83
2022/07/13 10:45:40;;;;;;;;;;;;;;;30.96;23.07;99432.41;4372419;32;34264;-85
2022/07/13 10:48:24;;;;;;;;;;;;;;;31.80;21.66;99436.47;4391986;32;33539;-92
2022/07/13 10:50:57;;;;;;;;;;;;;;;31.70;22.59;99443.44;4391982;32;34456;-84
2022/07/13 10:53:40;;;;;;;;;;;;;;;31.69;23.03;99434.53;4378458;32;34885;-83
2022/07/13 10:56:20;;;;;;;;;;;;;;;32.30;22.05;99434.69;4391465;32;34397;-89
2022/07/13 10:58:50;;;;;;;;;;;;;;;32.35;21.22;99437.03;4378542;32;33844;-83
2022/07/13 11:01:38;;;;;;;;;;;;;;;31.42;22.29;99441.84;4370195;32;33683;-87
2022/07/13 11:04:06;;;;;;;;;;;;;;;31.29;23.11;99440.91;4363468;32;34734;-88
2022/07/13 11:06:34;;;;;;;;;;;;;;;31.73;22.68;99443.22;4363489;32;34446;-89
2022/07/13 11:09:12;;;;;;;;;;;;;;;31.31;22.14;99426.50;4374220;32;34190;-85
2022/07/13 11:11:44;;;;;;;;;;;;;;;32.02;21.44;99445.72;4376335;32;34247;-84
2022/07/13 11:14:32;;;;;;;;;;;;;;;31.26;21.72;99433.97;4376801;32;35574;-82
2022/07/13 11:17:09;;;;;;;;;;;;;;;32.03;20.82;99436.69;4368275;32;34409;-83
2022/07/13 11:19:52;;;;;;;;;;;;;;;32.14;19.91;99434.97;4362893;32;33842;-85
2022/07/13 11:22:20;;;;;;;;;;;;;;;32.10;19.40;99419.19;4372508;32;34214;-85
2022/07/13 11:27:40;;;;;;;;;;;;;;;31.05;20.70;99422.03;4365031;32;35093;-84
2022/07/13 11:30:07;;;;;;;;;;;;;;;31.33;20.14;99416.56;4363129;32;34854;-86
2022/07/13 11:32:35;;;;;;;;;;;;;;;32.24;21.17;99416.38;4350938;32;33627;-83
2022/07/13 11:35:03;;;;;;;;;;;;;;;32.58;19.86;99414.78;4376518;32;34129;-83
2022/07/13 11:37:30;;;;;;;;;;;;;;;32.72;18.40;99411.06;4359657;32;34397;-88
2022/07/13 11:39:58;;;;;;;;;;;;;;;32.65;18.18;99401.75;4374521;32;34326;-85
2022/07/13 11:42:25;;;;;;;;;;;;;;;32.42;19.33;99401.63;4363008;32;33094;-85
2022/07/13 11:44:52;;;;;;;;;;;;;;;31.73;19.25;99403.88;4376534;32;34419;-91
2022/07/13 11:47:20;;;;;;;;;;;;;;;32.69;18.56;99395.16;4376270;32;34434;-84
2022/07/13 11:49:51;;;;;;;;;;;;;;;33.31;18.91;99391.37;4378008;32;33926;-82
2022/07/13 11:52:22;;;;;;;;;;;;;;;33.52;18.57;99405.00;4391808;32;33089;-82
2022/07/13 11:54:56;;;;;;;;;;;;;;;32.61;18.90;99411.00;4377398;32;34811;-87
2022/07/13 11:57:24;;;;;;;;;;;;;;;32.23;19.20;99387.81;4386867;32;33924;-89
2022/07/13 11:59:52;;;;;;;;;;;;;;;33.26;17.88;99372.91;4383501;32;34979;-77
2022/07/13 12:02:19;;;;;;;;;;;;;;;32.56;17.10;99387.19;4387486;32;33553;-89
2022/07/13 12:04:47;;;;;;;;;;;;;;;31.70;18.44;99388.00;4376629;32;34684;-86
2022/07/13 12:07:14;;;;;;;;;;;;;;;31.50;17.95;99375.16;4373681;32;35356;-83
2022/07/13 12:09:52;;;;;;;;;;;;;;;31.49;18.70;99384.19;4381449;32;34071;-87
2022/07/13 12:12:20;;;;;;;;;;;;;;;32.21;18.70;99387.94;4363022;32;34235;-81
2022/07/13 12:14:48;;;;;;;;;;;;;;;31.22;18.48;99403.84;4350497;32;34994;-89
2022/07/13 12:17:16;;;;;;;;;;;;;;;31.59;19.00;99384.37;4363078;32;33705;-84
2022/07/13 12:19:43;;;;;;;;;;;;;;;31.27;19.13;99379.44;4362614;32;34332;-82
2022/07/13 12:22:11;;;;;;;;;;;;;;;31.72;18.57;99385.22;4381048;32;33408;-85
2022/07/13 12:24:45;;;;;;;;;;;;;;;32.64;17.92;99384.78;4391133;32;34242;-81
2022/07/13 12:27:31;;;;;;;;;;;;;;;32.83;17.92;99386.94;4362521;32;34409;-92
2022/07/13 12:30:09;;;;;;;;;;;;;;;32.71;17.27;99387.88;4363736;32;33702;-83
2022/07/13 12:33:02;;;;;;;;;;;;;;;32.97;17.33;99377.03;4362610;32;33207;-83
2022/07/13 12:35:30;;;;;;;;;;;;;;;32.80;17.50;99372.88;4376242;32;34070;-84
2022/07/13 12:37:58;;;;;;;;;;;;;;;32.36;17.58;99385.97;4375778;32;34304;-85
2022/07/13 12:40:40;;;;;;;;;;;;;;;32.43;17.92;99383.72;4376109;32;34495;-84
2022/07/13 12:43:16;;;;;;;;;;;;;;;32.22;18.31;99372.69;4359602;32;32010;-83
2022/07/13 12:45:43;;;;;;;;;;;;;;;32.54;18.65;99380.22;4362777;32;33731;-89
2022/07/13 12:48:11;;;;;;;;;;;;;;;32.65;17.60;99364.16;4362638;32;33684;-83
2022/07/13 12:50:39;;;;;;;;;;;;;;;32.17;17.75;99386.47;4375034;32;34141;-83
2022/07/13 12:53:06;;;;;;;;;;;;;;;32.42;18.65;99376.63;4358703;32;33217;-88
2022/07/13 12:55:49;;;;;;;;;;;;;;;33.04;18.00;99364.84;4391477;32;33559;-93
2022/07/13 12:58:16;;;;;;;;;;;;;;;33.01;16.87;99362.38;4371713;32;33796;-87
2022/07/13 13:00:43;;;;;;;;;;;;;;;32.49;17.74;99377.03;4376020;32;34038;-83
2022/07/13 13:03:18;;;;;;;;;;;;;;;32.55;17.25;99373.91;4385959;32;33492;-85
2022/07/13 13:05:46;;;;;;;;;;;;;;;32.43;17.52;99368.47;4381754;32;34105;-86
2022/07/13 13:08:13;;;;;;;;;;;;;;;32.89;16.66;99350.72;4375994;32;34472;-89